createdAt,value
2019-05-29T00:03:16.852Z,14.17
2019-05-29T00:08:16.888Z,14.21
2019-05-29T00:13:16.920Z,14.14
2019-05-29T00:18:17.035Z,14.18
2019-05-29T00:23:17.069Z,14.22
2019-05-29T00:28:17.107Z,14.13
2019-05-29T00:33:23.464Z,14.04
2019-05-29T00:38:23.672Z,14.08
2019-05-29T00:43:23.587Z,14.05
2019-05-29T00:48:23.627Z,14.1
2019-05-29T00:53:23.701Z,14.03
2019-05-29T00:58:23.740Z,13.72
2019-05-29T01:03:23.856Z,13.56
2019-05-29T01:08:23.897Z,13.64
2019-05-29T01:13:24.072Z,13.72
2019-05-29T01:18:24.049Z,13.65
2019-05-29T01:23:24.083Z,13.82
2019-05-29T01:28:30.444Z,13.75
2019-05-29T01:33:30.841Z,13.8
2019-05-29T01:38:30.709Z,13.71
2019-05-29T01:43:30.632Z,13.68
2019-05-29T01:48:30.682Z,13.7
2019-05-29T01:53:30.797Z,13.7
2019-05-29T01:58:30.834Z,13.71
2019-05-29T02:03:30.889Z,13.65
2019-05-29T02:08:30.921Z,13.51
2019-05-29T02:13:30.959Z,13.44
2019-05-29T02:18:31.073Z,13.37
2019-05-29T02:23:39.404Z,13.48
2019-05-29T02:28:39.440Z,13.49
2019-05-29T02:33:39.556Z,13.38
2019-05-29T02:38:39.689Z,13.38
2019-05-29T02:43:39.646Z,13.37
2019-05-29T02:48:39.686Z,13.24
2019-05-29T02:53:39.801Z,13.15
2019-05-29T02:58:39.840Z,13.29
2019-05-29T03:03:40.276Z,13.3
2019-05-29T03:08:39.974Z,13.37
2019-05-29T03:13:40.051Z,13.4
2019-05-29T03:18:46.363Z,13.08
2019-05-29T03:23:46.415Z,13.02
2019-05-29T03:28:46.853Z,13.04
2019-05-29T03:33:49.403Z,13.01
2019-05-29T03:38:46.640Z,12.79
2019-05-29T03:43:46.714Z,12.87
2019-05-29T03:48:46.757Z,12.81
2019-05-29T03:53:46.815Z,12.92
2019-05-29T03:58:46.856Z,12.95
2019-05-29T04:03:47.568Z,13.04
2019-05-29T04:08:47.030Z,12.99
2019-05-29T04:13:53.361Z,13.01
2019-05-29T04:18:53.474Z,13.03
2019-05-29T04:23:53.490Z,13.08
2019-05-29T04:28:54.382Z,13.01
2019-05-29T04:33:54.444Z,13.12
2019-05-29T04:38:54.482Z,13.13
2019-05-29T04:43:56.966Z,13.13
2019-05-29T04:48:54.639Z,13.2
2019-05-29T04:53:54.870Z,13.03
2019-05-29T04:58:54.786Z,13.1
2019-05-29T05:03:54.782Z,13.15
2019-05-29T05:09:01.179Z,13.02
2019-05-29T05:14:01.806Z,13.21
2019-05-29T05:19:01.309Z,13.34
2019-05-29T05:24:01.333Z,13.26
2019-05-29T05:29:01.385Z,13.14
2019-05-29T05:34:01.501Z,13.31
2019-05-29T05:39:01.777Z,13.22
2019-05-29T05:44:01.892Z,13.34
2019-05-29T05:49:01.606Z,13.32
2019-05-29T05:54:01.721Z,13.39
2019-05-29T05:59:01.766Z,13.42
2019-05-29T06:04:08.094Z,13.25
2019-05-29T06:09:08.191Z,13.42
2019-05-29T06:14:08.180Z,13.35
2019-05-29T06:19:08.365Z,13.45
2019-05-29T06:24:08.375Z,13.5
2019-05-29T06:29:08.409Z,13.4
2019-05-29T06:34:08.592Z,13.49
2019-05-29T06:39:08.589Z,13.46
2019-05-29T06:44:08.625Z,13.37
2019-05-29T06:49:08.769Z,13.42
2019-05-29T06:54:08.789Z,13.44
2019-05-29T06:59:15.094Z,13.62
2019-05-29T07:04:15.211Z,13.57
2019-05-29T07:09:15.251Z,13.64
2019-05-29T07:14:15.290Z,13.69
2019-05-29T07:19:25.490Z,13.8
2019-05-29T07:24:15.586Z,13.78
2019-05-29T07:29:15.509Z,13.74
2019-05-29T07:34:15.545Z,13.71
2019-05-29T07:39:15.585Z,13.94
2019-05-29T07:44:15.861Z,13.88
2019-05-29T07:49:15.733Z,13.86
2019-05-29T07:54:22.090Z,14.04
2019-05-29T07:59:22.125Z,14.11
2019-05-29T08:04:22.237Z,14.02
2019-05-29T08:09:22.273Z,14.15
2019-05-29T08:14:22.457Z,14.26
2019-05-29T08:19:22.390Z,14.29
2019-05-29T08:24:24.769Z,14.4
2019-05-29T08:29:22.534Z,14.26
2019-05-29T08:34:22.582Z,14.58
2019-05-29T08:39:34.648Z,14.79
2019-05-29T08:44:22.761Z,14.98
2019-05-29T08:49:29.105Z,14.98
2019-05-29T08:54:29.140Z,15.31
2019-05-29T08:59:29.272Z,15.38
2019-05-29T09:04:29.553Z,15.39
2019-05-29T09:09:29.444Z,15.55
2019-05-29T09:14:29.486Z,15.59
2019-05-29T09:19:29.552Z,15.3
2019-05-29T09:24:29.562Z,15.49
2019-05-29T09:29:29.677Z,15.42
2019-05-29T09:34:29.714Z,15.48
2019-05-29T09:39:29.834Z,15.86
2019-05-29T09:44:39.055Z,15.81
2019-05-29T09:49:36.220Z,15.95
2019-05-29T09:54:36.439Z,16.0
2019-05-29T09:59:37.199Z,16.19
2019-05-29T10:04:42.699Z,16.2
2019-05-29T10:09:42.662Z,16.51
2019-05-29T10:14:42.661Z,16.48
2019-05-29T10:19:42.697Z,16.58
2019-05-29T10:24:42.809Z,16.61
2019-05-29T10:29:42.847Z,16.51
2019-05-29T10:34:44.014Z,16.68
2019-05-29T10:39:49.280Z,16.43
2019-05-29T10:44:49.465Z,16.21
2019-05-29T10:49:49.736Z,16.19
2019-05-29T10:54:50.211Z,16.31
2019-05-29T10:59:50.823Z,16.31
2019-05-29T11:04:53.593Z,16.31
2019-05-29T11:09:50.157Z,16.41
2019-05-29T11:14:50.700Z,16.75
2019-05-29T11:19:50.988Z,16.82
2019-05-29T11:24:50.146Z,16.91
2019-05-29T11:29:50.540Z,16.93
2019-05-29T11:34:59.655Z,17.01
2019-05-29T11:39:59.463Z,16.88
2019-05-29T11:44:59.662Z,16.78
2019-05-29T11:50:09.160Z,16.72
2019-05-29T11:55:04.317Z,16.66
2019-05-29T12:00:09.252Z,16.63
2019-05-29T12:05:03.822Z,16.51
2019-05-29T12:10:04.668Z,16.44
2019-05-29T12:15:12.784Z,16.48
2019-05-29T12:20:16.162Z,16.61
2019-05-29T12:25:05.822Z,17.18
2019-05-29T12:30:14.191Z,17.29
2019-05-29T12:35:14.305Z,17.11
2019-05-29T12:40:15.063Z,17.08
2019-05-29T12:45:15.186Z,17.21
2019-05-29T12:50:15.897Z,17.06
2019-05-29T12:55:16.036Z,17.14
2019-05-29T13:00:16.073Z,17.21
2019-05-29T13:05:20.012Z,17.08
2019-05-29T13:10:29.243Z,17.52
2019-05-29T13:15:16.290Z,17.3
2019-05-29T13:20:21.370Z,17.71
2019-05-29T13:25:22.727Z,17.42
2019-05-29T13:30:23.859Z,17.67
2019-05-29T13:35:24.041Z,17.64
2019-05-29T13:40:24.079Z,17.66
2019-05-29T13:45:24.228Z,17.56
2019-05-29T13:50:24.269Z,17.65
2019-05-29T13:55:24.386Z,17.41
2019-05-29T14:00:33.579Z,17.38
2019-05-29T14:05:24.574Z,17.23
2019-05-29T14:10:24.691Z,16.85
2019-05-29T14:15:24.966Z,16.86
2019-05-29T14:20:31.141Z,16.71
2019-05-29T14:25:31.089Z,16.66
2019-05-29T14:30:31.160Z,16.8
2019-05-29T14:35:31.198Z,16.95
2019-05-29T14:40:31.801Z,17.43
2019-05-29T14:45:31.376Z,17.76
2019-05-29T14:50:31.437Z,17.92
2019-05-29T14:55:31.453Z,18.42
2019-05-29T15:00:31.555Z,18.42
2019-05-29T15:05:31.593Z,18.56
2019-05-29T15:10:31.709Z,17.99
2019-05-29T15:15:42.019Z,18.04
2019-05-29T15:20:42.544Z,18.0
2019-05-29T15:25:43.175Z,18.09
2019-05-29T15:30:43.293Z,18.0
2019-05-29T15:35:50.352Z,18.17
2019-05-29T15:40:50.389Z,18.2
2019-05-29T15:45:50.663Z,18.19
2019-05-29T15:50:52.096Z,18.22
2019-05-29T15:55:54.364Z,18.26
2019-05-29T16:00:54.559Z,18.26
2019-05-29T16:05:55.525Z,18.19
2019-05-29T16:11:10.757Z,18.35
2019-05-29T16:16:11.081Z,18.37
2019-05-29T16:21:10.932Z,18.49
2019-05-29T16:26:11.077Z,18.27
2019-05-29T16:31:15.207Z,18.38
2019-05-29T16:36:16.773Z,18.32
2019-05-29T16:41:17.874Z,18.3
2019-05-29T16:46:19.164Z,18.38
2019-05-29T16:51:17.132Z,18.4
2019-05-29T16:56:50.875Z,18.11
2019-05-29T17:01:54.997Z,17.85
2019-05-29T17:07:33.929Z,17.47
2019-05-29T17:12:34.329Z,17.28
2019-05-29T17:17:34.101Z,17.37
2019-05-29T17:22:34.139Z,17.39
2019-05-29T17:27:34.252Z,17.45
2019-05-29T17:32:34.290Z,17.51
2019-05-29T17:37:34.405Z,17.45
2019-05-29T17:42:34.433Z,17.45
2019-05-29T17:47:34.470Z,17.45
2019-05-29T17:52:35.705Z,17.45
2019-05-29T17:57:36.001Z,17.39
2019-05-29T18:02:51.741Z,17.34
2019-05-29T18:07:44.407Z,17.36
2019-05-29T18:12:44.450Z,17.44
2019-05-29T18:17:44.806Z,17.33
2019-05-29T18:22:44.586Z,17.27
2019-05-29T18:27:44.703Z,17.25
2019-05-29T18:32:44.778Z,17.24
2019-05-29T18:37:44.817Z,17.17
2019-05-29T18:42:44.861Z,17.09
2019-05-29T18:47:44.916Z,16.98
2019-05-29T18:52:45.042Z,16.91
2019-05-29T18:57:52.355Z,16.8
2019-05-29T19:02:52.711Z,16.76
2019-05-29T19:08:01.313Z,16.62
2019-05-29T19:13:04.197Z,16.55
2019-05-29T19:18:06.821Z,16.55
2019-05-29T19:23:06.325Z,16.52
2019-05-29T19:28:06.361Z,16.44
2019-05-29T19:33:06.964Z,16.41
2019-05-29T19:38:07.101Z,16.29
2019-05-29T19:43:08.149Z,16.28
2019-05-29T19:48:10.741Z,16.2
2019-05-29T19:53:33.492Z,16.07
2019-05-29T19:58:33.876Z,16.02
2019-05-29T20:03:34.622Z,15.97
2019-05-29T20:08:36.166Z,15.89
2019-05-29T20:13:46.622Z,15.81
2019-05-29T20:18:49.213Z,15.68
2019-05-29T20:24:17.490Z,15.57
2019-05-29T20:29:22.682Z,15.52
2019-05-29T20:34:36.879Z,15.45
2019-05-29T20:39:50.661Z,15.34
2019-05-29T20:53:41.853Z,15.16
2019-05-29T20:58:46.837Z,15.13
2019-05-29T21:03:58.745Z,15.1
2019-05-29T21:09:03.605Z,15.06
2019-05-29T21:14:10.990Z,14.92
2019-05-29T21:19:52.560Z,14.87
2019-05-29T21:25:06.115Z,14.81
2019-05-29T21:30:41.686Z,14.8
2019-05-29T21:41:04.706Z,14.7
2019-05-29T21:46:05.649Z,14.62
2019-05-29T21:51:37.374Z,14.54
2019-05-29T21:56:41.582Z,14.4
2019-05-29T22:01:44.534Z,14.33
2019-05-29T22:06:47.005Z,14.29
2019-05-29T22:11:56.908Z,14.23
2019-05-29T22:17:03.079Z,14.17
2019-05-29T22:22:04.087Z,14.13
2019-05-29T22:27:09.218Z,14.08
2019-05-29T22:32:11.482Z,14.05
2019-05-29T22:37:14.741Z,14.01
2019-05-29T22:42:17.220Z,13.93
2019-05-29T22:47:28.769Z,13.86
2019-05-29T22:52:29.797Z,13.7
2019-05-29T22:57:30.882Z,13.59
2019-05-29T23:02:31.034Z,13.58
2019-05-29T23:07:33.330Z,13.47
2019-05-29T23:12:38.229Z,13.4
2019-05-29T23:17:43.238Z,13.41
2019-05-29T23:22:43.358Z,13.33
2019-05-29T23:27:44.080Z,13.29
2019-05-29T23:32:44.213Z,13.25
2019-05-29T23:37:44.248Z,13.18
2019-05-29T23:42:53.310Z,13.14
2019-05-29T23:47:53.377Z,13.12
2019-05-29T23:52:53.575Z,13.12
2019-05-29T23:57:53.671Z,13.12
